WetterOnline ( https://www.wetteronline.de )

Wetter aktuell Osnabrück

Aktuelles Wetter: Belm (103m)

6-stündlich | Neueste Meldungen
Ortszeit Temperatur Wetter
Fr, 30.07. 2:00 14.3° C fast wolkenlos
Do, 29.07. 20:00 19.5° C wolkig
Do, 29.07. 14:00 20.8° C leicht bewölkt
Do, 29.07. 8:00 15.8° C wolkig
Do, 29.07. 2:00 16.9° C bedeckt
Mi, 28.07. 20:00 20.8° C bewölkt
Mi, 28.07. 14:00 20.3° C wolkig
Mi, 28.07. 8:00 16.5° C bewölkt
Ortszeit Temperatur Wetter
Fr, 30.07. 7:00 13.1° C bewölkt
Fr, 30.07. 6:50 13.1° C bewölkt
Fr, 30.07. 6:40 12.7° C wolkig
Fr, 30.07. 6:30 12.6° C fast wolkenlos
Fr, 30.07. 6:20 12.6° C fast wolkenlos
Fr, 30.07. 6:10 12.4° C fast wolkenlos
Fr, 30.07. 6:00 12.4° C leicht bewölkt
Fr, 30.07. 5:30 12.5° C wolkig
Fr, 30.07. 5:00 12.4° C leicht bewölkt
Fr, 30.07. 4:30 12.6° C wolkenlos
Fr, 30.07. 4:00 13.3° C wolkenlos
Ortszeit Relative Feuchte Sichtweite
Fr, 30.07. 2:00 79% 45 km
Do, 29.07. 20:00 53% 60 km
Do, 29.07. 14:00 49% >70 km
Do, 29.07. 8:00 78% 55 km
Do, 29.07. 2:00 72% 65 km
Mi, 28.07. 20:00 57% 65 km
Mi, 28.07. 14:00 79% 40 km
Mi, 28.07. 8:00 87% 35 km
Ortszeit Relative Feuchte Sichtweite
Fr, 30.07. 7:00 82% 35 km
Fr, 30.07. 6:50 82% -
Fr, 30.07. 6:40 82% -
Fr, 30.07. 6:30 81% 40 km
Fr, 30.07. 6:20 81% -
Fr, 30.07. 6:10 82% -
Fr, 30.07. 6:00 82% 40 km
Fr, 30.07. 5:30 80% 45 km
Fr, 30.07. 5:00 82% 40 km
Fr, 30.07. 4:30 82% 40 km
Fr, 30.07. 4:00 81% 45 km
Ortszeit Niederschlagsmenge Niederschlagsart
Fr, 30.07. 2:00 0.1 l/m2 in 6 Std. Regen
Do, 29.07. 20:00 0.1 l/m2 in 12 Std. Regen
Do, 29.07. 14:00 0.1 l/m2 in 6 Std. Regen
Do, 29.07. 8:00 0.1 l/m2 in 12 Std. Regen
Do, 29.07. 2:00 0.1 l/m2 in 6 Std. Regen
Mi, 28.07. 20:00 3 l/m2 in 12 Std. -
Mi, 28.07. 14:00 3 l/m2 in 6 Std. Regen
Mi, 28.07. 8:00 0.8 l/m2 in 12 Std. -
Ortszeit Niederschlagsmenge Niederschlagsart
Fr, 30.07. 7:00 0.0 l/m2 in 1 Std. -
Fr, 30.07. 6:50 keine Meldung -
Fr, 30.07. 6:40 keine Meldung -
Fr, 30.07. 6:30 0.0 l/m2 in 1 Std. -
Fr, 30.07. 6:20 keine Meldung -
Fr, 30.07. 6:10 keine Meldung -
Fr, 30.07. 6:00 0.0 l/m2 in 1 Std. -
Fr, 30.07. 5:30 0.0 l/m2 in 1 Std. -
Fr, 30.07. 5:00 0.0 l/m2 in 1 Std. -
Fr, 30.07. 4:30 0.0 l/m2 in 1 Std. -
Fr, 30.07. 4:00 0.0 l/m2 in 1 Std. -
Ortszeit Stärke Spitze Richtung
km/h Bft. km/h Grad Sektor
Fr, 30.07. 2:00 6 1 37 210° SW
Do, 29.07. 20:00 22 4 61 260° W
Do, 29.07. 14:00 25 4 61 220° SW
Do, 29.07. 8:00 24 4 41 220° SW
Do, 29.07. 2:00 20 4 56 210° SW
Mi, 28.07. 20:00 28 4 54 240° SW
Mi, 28.07. 14:00 22 4 40 200° S
Mi, 28.07. 8:00 19 3 28 210° SW
Ortszeit Stärke Spitze Richtung
km/h Bft. km/h Grad Sektor
Fr, 30.07. 7:00 7 2 11 180° S
Fr, 30.07. 6:50 7 2 - 180° S
Fr, 30.07. 6:40 7 2 - 170° S
Fr, 30.07. 6:30 7 2 11 180° S
Fr, 30.07. 6:20 7 2 - 180° S
Fr, 30.07. 6:10 7 2 - 180° S
Fr, 30.07. 6:00 7 2 14 180° S
Fr, 30.07. 5:30 7 2 14 190° S
Fr, 30.07. 5:00 7 2 14 190° S
Fr, 30.07. 4:30 7 2 11 190° S
Fr, 30.07. 4:00 11 2 14 180° S
Ortszeit Untergrenze Bedeckung Gattung
total tief tief mittel hoch
Fr, 30.07. 2:00 1410 m 1/8 1/8 - - -
Do, 29.07. 20:00 1800 m 7/8 2/8 - - -
Do, 29.07. 14:00 1410 m 2/8 2/8 - - -
Do, 29.07. 8:00 600 m 5/8 4/8 - - -
Do, 29.07. 2:00 2400 m 8/8 8/8 - - -
Mi, 28.07. 20:00 1320 m 7/8 7/8 - - -
Mi, 28.07. 14:00 540 m 7/8 3/8 - - -
Mi, 28.07. 8:00 660 m 7/8 7/8 - - -
Ortszeit Bedeckungsgrad in Achtel und Wolkenuntergrenze
Fr, 30.07. 7:00 5(6900m) 7(7500m) 8(8400m)
Fr, 30.07. 6:50 5(6900m) 7(7500m) 8(8400m)
Fr, 30.07. 6:40 4(7500m) 7(8400m)
Fr, 30.07. 6:30 2(7500m)
Fr, 30.07. 6:20 2(7500m)
Fr, 30.07. 6:10 1(7500m) 2(10500m)
Fr, 30.07. 6:00 2(8400m) 6(10500m)
Fr, 30.07. 5:30 4(9000m) 5(9000m) 7(10500m)
Fr, 30.07. 5:00 3(9000m) 5(9000m)
Fr, 30.07. 4:30 keine Wolken
Fr, 30.07. 4:00 keine Wolken
Ortszeit Luftdruck NN (hPa) Tendenz (hPa in 3 Std.)
Fr, 30.07. 2:00 1011 - 0,5
Do, 29.07. 20:00 1011 - 0,3
Do, 29.07. 14:00 1010 + 0,3
Do, 29.07. 8:00 1009 + 0,5
Do, 29.07. 2:00 1010 - 0,2
Mi, 28.07. 20:00 1010 + 0,8
Mi, 28.07. 14:00 1009 - 0,3
Mi, 28.07. 8:00 1010 - 0,2
Ortszeit Luftdruck NN (hPa) Tendenz (hPa in 3 Std.)
Fr, 30.07. 7:00 1010 - 0,2
Fr, 30.07. 6:50 1010 keine Meldung
Fr, 30.07. 6:40 1010 keine Meldung
Fr, 30.07. 6:30 1010 - 0,5
Fr, 30.07. 6:20 1010 keine Meldung
Fr, 30.07. 6:10 1010 keine Meldung
Fr, 30.07. 6:00 1010 - 0,6
Fr, 30.07. 5:30 1010 - 0,4
Fr, 30.07. 5:00 1010 - 0,3
Fr, 30.07. 4:30 1010 - 0,8
Fr, 30.07. 4:00 1010 - 0,7
Ortszeit Schneehöhe (cm)
Fr, 30.07. 2:00 -
Do, 29.07. 20:00 -
Do, 29.07. 14:00 -
Do, 29.07. 8:00 -
Do, 29.07. 2:00 -
Mi, 28.07. 20:00 -
Mi, 28.07. 14:00 -
Mi, 28.07. 8:00 -
Ortszeit Schneehöhe (cm)
Fr, 30.07. 7:00 -
Fr, 30.07. 6:50 -
Fr, 30.07. 6:40 -
Fr, 30.07. 6:30 -
Fr, 30.07. 6:20 -
Fr, 30.07. 6:10 -
Fr, 30.07. 6:00 -
Fr, 30.07. 5:30 -
Fr, 30.07. 5:00 -
Fr, 30.07. 4:30 -
Fr, 30.07. 4:00 -
Link zu dieser Seite / Seite empfehlen

Das Wetter in ...